Time;durP1;ratioP1;P1;durP2;ratioP2;P2;SDS_P1;SDS_P2;PMS_P1;PMS_P2;Temp;Humidity;BMP_temperature;BMP_pressure;BME280_temperature;BME280_humidity;BME280_pressure;Samples;Min_cycle;Max_cycle;Signal;HPM_P1;HPM_P2
2021/07/18 00:02:06;;;;;;;24.77;17.65;;;;;;;;;;4936623;29;20048;-75
2021/07/18 00:04:34;;;;;;;24.45;16.38;;;;;;;;;;4936173;29;20063;-75
2021/07/18 00:07:01;;;;;;;24.63;15.85;;;;;;;;;;4936403;29;20098;-75
2021/07/18 00:09:28;;;;;;;22.52;16.50;;;;;;;;;;4936025;29;20080;-75
2021/07/18 00:11:54;;;;;;;23.98;16.92;;;;;;;;;;4936133;29;20072;-77
2021/07/18 00:14:22;;;;;;;23.75;17.45;;;;;;;;;;4936231;29;20102;-75
2021/07/18 00:16:49;;;;;;;23.27;17.45;;;;;;;;;;4935873;29;20051;-75
2021/07/18 00:19:16;;;;;;;23.45;17.33;;;;;;;;;;4936201;29;20048;-76
2021/07/18 00:21:42;;;;;;;24.15;17.25;;;;;;;;;;4936109;29;20111;-75
2021/07/18 00:24:09;;;;;;;23.30;17.13;;;;;;;;;;4935746;29;20111;-75
2021/07/18 00:26:36;;;;;;;21.40;16.27;;;;;;;;;;4935776;29;20501;-75
2021/07/18 00:29:03;;;;;;;24.80;17.40;;;;;;;;;;4935806;29;20147;-77
2021/07/18 00:31:31;;;;;;;21.65;16.15;;;;;;;;;;4935946;29;20043;-76
2021/07/18 00:33:58;;;;;;;23.33;15.90;;;;;;;;;;4935683;29;20044;-76
2021/07/18 00:36:25;;;;;;;19.30;15.70;;;;;;;;;;4935387;29;20047;-76
2021/07/18 00:38:51;;;;;;;24.48;16.92;;;;;;;;;;4935572;29;20059;-76
2021/07/18 00:41:18;;;;;;;22.35;16.13;;;;;;;;;;4935761;29;20421;-76
2021/07/18 00:43:45;;;;;;;21.63;15.82;;;;;;;;;;4935844;29;20047;-76
2021/07/18 00:46:12;;;;;;;19.55;15.45;;;;;;;;;;4935624;29;20048;-76
2021/07/18 00:48:40;;;;;;;19.77;15.00;;;;;;;;;;4935977;29;20044;-76
2021/07/18 00:51:07;;;;;;;20.52;15.40;;;;;;;;;;4935681;29;20095;-76
2021/07/18 00:53:33;;;;;;;17.70;13.93;;;;;;;;;;4935834;29;20505;-76
2021/07/18 00:56:00;;;;;;;19.48;14.63;;;;;;;;;;4935458;29;20107;-77
2021/07/18 00:58:30;;;;;;;22.33;15.45;;;;;;;;;;4935475;29;20391;-75
2021/07/18 01:00:58;;;;;;;21.98;14.82;;;;;;;;;;4936109;29;20043;-77
2021/07/18 01:03:26;;;;;;;20.90;15.38;;;;;;;;;;4935896;29;20063;-76
2021/07/18 01:05:54;;;;;;;18.60;14.45;;;;;;;;;;4935064;29;20052;-75
2021/07/18 01:08:21;;;;;;;18.77;14.73;;;;;;;;;;4934974;29;20047;-76
2021/07/18 01:10:48;;;;;;;17.50;13.25;;;;;;;;;;4934947;29;20454;-76
2021/07/18 01:13:15;;;;;;;17.92;13.57;;;;;;;;;;4934908;29;20055;-76
2021/07/18 01:15:42;;;;;;;19.83;13.88;;;;;;;;;;4934151;29;20494;-76
2021/07/18 01:18:09;;;;;;;16.77;12.98;;;;;;;;;;4934728;29;20051;-76
2021/07/18 01:20:37;;;;;;;19.25;12.80;;;;;;;;;;4934787;29;20458;-75
2021/07/18 01:23:05;;;;;;;19.13;13.18;;;;;;;;;;4934815;29;20056;-75
2021/07/18 01:25:34;;;;;;;18.58;13.65;;;;;;;;;;4934765;29;20102;-76
2021/07/18 01:28:01;;;;;;;18.50;13.52;;;;;;;;;;4935264;29;20056;-76
2021/07/18 01:30:28;;;;;;;19.52;13.10;;;;;;;;;;4935761;29;20465;-76
2021/07/18 01:32:55;;;;;;;18.48;13.10;;;;;;;;;;4938260;29;20565;-76
2021/07/18 01:35:22;;;;;;;17.52;12.73;;;;;;;;;;4946885;29;20051;-75
2021/07/18 01:37:48;;;;;;;16.20;12.07;;;;;;;;;;4942775;29;20181;-75
2021/07/18 01:40:17;;;;;;;15.43;11.80;;;;;;;;;;4938530;29;20110;-76
2021/07/18 01:42:43;;;;;;;17.63;12.68;;;;;;;;;;4935223;29;20544;-76
2021/07/18 01:45:11;;;;;;;16.35;11.85;;;;;;;;;;4934892;29;20098;-76
2021/07/18 01:47:38;;;;;;;17.35;11.93;;;;;;;;;;4934936;29;20051;-76
2021/07/18 01:50:06;;;;;;;16.75;11.90;;;;;;;;;;4934808;29;20136;-76
2021/07/18 01:52:33;;;;;;;14.18;11.57;;;;;;;;;;4935037;29;20051;-76
2021/07/18 01:55:00;;;;;;;16.95;11.38;;;;;;;;;;4934411;29;20052;-76
2021/07/18 01:57:31;;;;;;;14.65;10.48;;;;;;;;;;4934724;29;20099;-76
2021/07/18 01:59:58;;;;;;;15.20;10.07;;;;;;;;;;4934494;29;20051;-76
2021/07/18 02:02:24;;;;;;;15.73;11.15;;;;;;;;;;4934854;29;20048;-76
2021/07/18 02:04:51;;;;;;;15.63;10.60;;;;;;;;;;4934254;29;20051;-76
2021/07/18 02:07:18;;;;;;;17.13;11.20;;;;;;;;;;4934786;29;20102;-76
2021/07/18 02:09:45;;;;;;;11.50;9.30;;;;;;;;;;4934379;29;20072;-75
2021/07/18 02:12:12;;;;;;;14.82;9.88;;;;;;;;;;4934219;29;20047;-75
2021/07/18 02:14:42;;;;;;;16.02;10.35;;;;;;;;;;4934352;29;20048;-75
2021/07/18 02:17:09;;;;;;;13.95;9.70;;;;;;;;;;4934883;29;20044;-75
2021/07/18 02:19:36;;;;;;;14.05;10.23;;;;;;;;;;4934746;29;20122;-76
2021/07/18 02:22:04;;;;;;;16.52;9.98;;;;;;;;;;4934805;29;20123;-75
2021/07/18 02:24:31;;;;;;;15.50;9.18;;;;;;;;;;4934540;29;20142;-75
2021/07/18 02:26:58;;;;;;;12.77;10.40;;;;;;;;;;4935041;29;20055;-75
2021/07/18 02:29:25;;;;;;;13.23;9.95;;;;;;;;;;4938163;29;20055;-75
2021/07/18 02:31:53;;;;;;;12.90;9.50;;;;;;;;;;4937939;29;20087;-75
2021/07/18 02:34:20;;;;;;;13.38;9.73;;;;;;;;;;4937970;29;20048;-75
2021/07/18 02:36:47;;;;;;;12.48;8.48;;;;;;;;;;4937494;29;20044;-75
2021/07/18 02:39:14;;;;;;;12.18;8.52;;;;;;;;;;4938006;29;20115;-75
2021/07/18 02:41:41;;;;;;;14.95;9.25;;;;;;;;;;4938168;29;20557;-75
2021/07/18 02:44:08;;;;;;;14.48;9.10;;;;;;;;;;4937902;29;20103;-75
2021/07/18 02:46:36;;;;;;;12.15;8.13;;;;;;;;;;4937204;29;20383;-75
2021/07/18 02:49:05;;;;;;;10.73;8.00;;;;;;;;;;4937265;29;20051;-75
2021/07/18 02:51:31;;;;;;;11.93;7.93;;;;;;;;;;4937447;29;20111;-75
2021/07/18 02:53:58;;;;;;;13.70;8.65;;;;;;;;;;4937408;29;20127;-75
2021/07/18 02:56:25;;;;;;;11.27;7.15;;;;;;;;;;4937787;29;20055;-75
2021/07/18 02:58:52;;;;;;;15.02;8.38;;;;;;;;;;4937702;29;20048;-75
2021/07/18 03:01:19;;;;;;;11.05;7.80;;;;;;;;;;4937290;29;20502;-75
2021/07/18 03:03:46;;;;;;;11.23;7.20;;;;;;;;;;4937443;29;20095;-75
2021/07/18 03:06:14;;;;;;;9.00;6.97;;;;;;;;;;4936922;29;20090;-75
2021/07/18 03:08:40;;;;;;;11.13;7.30;;;;;;;;;;4937051;29;20564;-75
2021/07/18 03:11:07;;;;;;;12.88;7.93;;;;;;;;;;4936951;29;20119;-75
2021/07/18 03:13:34;;;;;;;12.20;7.30;;;;;;;;;;4936971;29;20600;-75
2021/07/18 03:16:01;;;;;;;11.77;6.93;;;;;;;;;;4936885;29;20044;-75
2021/07/18 03:18:27;;;;;;;10.75;6.75;;;;;;;;;;4936949;29;20103;-75
2021/07/18 03:20:54;;;;;;;11.30;7.32;;;;;;;;;;4936875;29;20110;-75
2021/07/18 03:23:22;;;;;;;10.32;6.50;;;;;;;;;;4936996;29;20051;-76
2021/07/18 03:25:49;;;;;;;11.27;7.07;;;;;;;;;;4936594;29;20107;-76
2021/07/18 03:28:16;;;;;;;11.25;6.80;;;;;;;;;;4936988;29;20044;-76
2021/07/18 03:30:42;;;;;;;12.57;7.28;;;;;;;;;;4936646;29;20138;-76
2021/07/18 03:33:09;;;;;;;9.65;6.35;;;;;;;;;;4936768;29;20052;-76
2021/07/18 03:35:36;;;;;;;11.50;6.55;;;;;;;;;;4936331;29;20410;-75
2021/07/18 03:38:03;;;;;;;10.80;6.80;;;;;;;;;;4936202;29;20079;-76
2021/07/18 03:40:31;;;;;;;15.70;7.68;;;;;;;;;;4936657;29;20067;-76
2021/07/18 03:42:57;;;;;;;11.13;6.50;;;;;;;;;;4936873;29;20043;-76
2021/07/18 03:45:24;;;;;;;9.85;6.30;;;;;;;;;;4936174;29;20052;-75
2021/07/18 03:47:52;;;;;;;10.82;6.38;;;;;;;;;;4936265;29;20044;-76
2021/07/18 03:50:19;;;;;;;9.13;6.70;;;;;;;;;;4936105;29;20044;-76
2021/07/18 03:52:47;;;;;;;10.35;6.18;;;;;;;;;;4936690;29;20075;-76
2021/07/18 03:55:15;;;;;;;10.52;6.13;;;;;;;;;;4936271;29;20252;-76
2021/07/18 03:57:43;;;;;;;11.35;6.95;;;;;;;;;;4936415;29;20051;-76
2021/07/18 04:00:11;;;;;;;10.32;6.43;;;;;;;;;;4936156;29;20123;-76
2021/07/18 04:02:38;;;;;;;10.07;6.13;;;;;;;;;;4936473;29;20075;-76
2021/07/18 04:05:05;;;;;;;10.93;6.18;;;;;;;;;;4935781;29;20051;-76
2021/07/18 04:07:33;;;;;;;10.60;5.60;;;;;;;;;;4936057;29;20094;-76
2021/07/18 04:10:01;;;;;;;13.32;6.47;;;;;;;;;;4936182;29;20052;-76
2021/07/18 04:12:28;;;;;;;15.20;6.60;;;;;;;;;;4935915;29;20043;-76
2021/07/18 04:14:56;;;;;;;8.45;5.63;;;;;;;;;;4936053;29;20051;-75
2021/07/18 04:17:23;;;;;;;9.30;5.90;;;;;;;;;;4935679;29;20052;-76
2021/07/18 04:19:50;;;;;;;10.25;5.40;;;;;;;;;;4935907;29;20110;-76
2021/07/18 04:22:17;;;;;;;9.55;6.00;;;;;;;;;;4935730;29;20107;-77
2021/07/18 04:24:44;;;;;;;11.43;6.20;;;;;;;;;;4935590;29;20052;-76
2021/07/18 04:27:10;;;;;;;10.00;5.90;;;;;;;;;;4935830;29;20386;-76
2021/07/18 04:29:37;;;;;;;11.52;5.63;;;;;;;;;;4935634;29;20049;-77
2021/07/18 04:32:06;;;;;;;10.48;6.05;;;;;;;;;;4935542;29;20052;-76
2021/07/18 04:34:33;;;;;;;10.75;5.47;;;;;;;;;;4935580;29;20052;-76
2021/07/18 04:37:00;;;;;;;7.40;5.65;;;;;;;;;;4935487;29;20071;-77
2021/07/18 04:39:27;;;;;;;9.10;5.57;;;;;;;;;;4935730;29;20044;-76
2021/07/18 04:41:54;;;;;;;7.90;5.10;;;;;;;;;;4935601;29;20501;-76
2021/07/18 04:44:21;;;;;;;8.38;5.32;;;;;;;;;;4935825;29;20051;-76
2021/07/18 04:46:47;;;;;;;7.47;4.93;;;;;;;;;;4935267;29;20122;-76
2021/07/18 04:49:15;;;;;;;9.30;4.93;;;;;;;;;;4935153;29;20051;-76
2021/07/18 04:51:42;;;;;;;7.38;4.35;;;;;;;;;;4935015;29;20095;-76
2021/07/18 04:54:09;;;;;;;9.60;5.22;;;;;;;;;;4937332;29;20102;-75
2021/07/18 04:56:35;;;;;;;8.60;4.72;;;;;;;;;;4946592;29;20060;-76
2021/07/18 04:59:02;;;;;;;8.57;5.28;;;;;;;;;;4947723;29;20494;-76
2021/07/18 05:01:29;;;;;;;7.40;4.80;;;;;;;;;;4942731;29;20052;-75
2021/07/18 05:03:56;;;;;;;8.15;4.95;;;;;;;;;;4939011;29;20064;-76
2021/07/18 05:06:24;;;;;;;6.82;4.95;;;;;;;;;;4935478;29;20043;-76
2021/07/18 05:08:51;;;;;;;8.70;4.82;;;;;;;;;;4935546;29;20103;-76
2021/07/18 05:11:19;;;;;;;9.48;4.93;;;;;;;;;;4935014;29;20054;-76
2021/07/18 05:13:45;;;;;;;9.32;4.30;;;;;;;;;;4935163;29;20064;-77
2021/07/18 05:16:12;;;;;;;8.02;4.32;;;;;;;;;;4934783;29;20088;-76
2021/07/18 05:18:39;;;;;;;9.63;4.80;;;;;;;;;;4935211;29;20043;-75
2021/07/18 05:21:06;;;;;;;8.57;4.80;;;;;;;;;;4934999;29;20556;-75
2021/07/18 05:23:34;;;;;;;7.15;4.53;;;;;;;;;;4935506;29;20047;-75
2021/07/18 05:26:01;;;;;;;9.10;4.80;;;;;;;;;;4935185;29;20100;-76
2021/07/18 05:28:28;;;;;;;7.80;4.40;;;;;;;;;;4935220;29;20047;-76
2021/07/18 05:30:55;;;;;;;10.85;4.82;;;;;;;;;;4935128;29;20115;-76
2021/07/18 05:33:21;;;;;;;8.32;4.15;;;;;;;;;;4935664;29;20048;-76
2021/07/18 05:35:48;;;;;;;8.07;4.00;;;;;;;;;;4935321;29;20110;-76
2021/07/18 05:38:15;;;;;;;8.40;4.53;;;;;;;;;;4934655;29;20055;-76
2021/07/18 05:40:43;;;;;;;8.85;4.93;;;;;;;;;;4934665;29;20103;-76
2021/07/18 05:43:10;;;;;;;8.50;4.82;;;;;;;;;;4934592;29;20047;-76
2021/07/18 05:45:37;;;;;;;9.82;4.63;;;;;;;;;;4934690;29;20051;-76
2021/07/18 05:48:05;;;;;;;9.35;4.70;;;;;;;;;;4934514;29;20596;-76
2021/07/18 05:50:32;;;;;;;8.77;4.30;;;;;;;;;;4934552;29;20048;-76
2021/07/18 05:52:58;;;;;;;9.07;4.57;;;;;;;;;;4934630;29;20107;-76
2021/07/18 05:55:25;;;;;;;9.20;4.68;;;;;;;;;;4934384;29;20429;-76
2021/07/18 05:57:54;;;;;;;8.07;4.85;;;;;;;;;;4934759;29;20083;-76
2021/07/18 06:00:21;;;;;;;7.03;4.80;;;;;;;;;;4934521;29;20412;-76
2021/07/18 06:02:48;;;;;;;7.95;4.47;;;;;;;;;;4938150;29;20044;-76
2021/07/18 06:05:14;;;;;;;8.10;4.50;;;;;;;;;;4938084;29;20151;-76
2021/07/18 06:07:41;;;;;;;7.38;3.90;;;;;;;;;;4938163;29;20421;-76
2021/07/18 06:10:09;;;;;;;9.95;4.60;;;;;;;;;;4938362;29;20055;-76
2021/07/18 06:12:37;;;;;;;7.95;4.78;;;;;;;;;;4938349;29;20052;-76
2021/07/18 06:15:06;;;;;;;10.75;5.15;;;;;;;;;;4938200;29;20146;-77
2021/07/18 06:17:35;;;;;;;10.57;4.88;;;;;;;;;;4938065;29;20048;-76
2021/07/18 06:20:02;;;;;;;9.27;4.70;;;;;;;;;;4938140;29;20134;-76
2021/07/18 06:22:28;;;;;;;7.28;4.30;;;;;;;;;;4937969;29;20110;-76
2021/07/18 06:24:55;;;;;;;9.13;4.80;;;;;;;;;;4937751;29;20056;-76
2021/07/18 06:27:22;;;;;;;8.57;4.80;;;;;;;;;;4938093;29;20098;-76
2021/07/18 06:29:49;;;;;;;9.52;5.60;;;;;;;;;;4938219;29;20106;-76
2021/07/18 06:32:17;;;;;;;10.25;5.03;;;;;;;;;;4937793;29;20107;-75
2021/07/18 06:34:44;;;;;;;8.77;5.00;;;;;;;;;;4937781;29;20048;-75
2021/07/18 06:37:11;;;;;;;8.98;4.63;;;;;;;;;;4938033;29;20130;-76
2021/07/18 06:39:38;;;;;;;9.23;4.75;;;;;;;;;;4937780;29;20505;-75
2021/07/18 06:42:05;;;;;;;8.73;4.13;;;;;;;;;;4937980;29;20047;-76
2021/07/18 06:44:31;;;;;;;8.57;4.55;;;;;;;;;;4937664;29;20051;-76
2021/07/18 06:46:58;;;;;;;7.60;4.15;;;;;;;;;;4937370;29;20044;-76
2021/07/18 06:49:26;;;;;;;7.50;4.15;;;;;;;;;;4967946;23;20097;-79
2021/07/18 06:51:53;;;;;;;9.93;4.07;;;;;;;;;;4983573;28;20454;-79
2021/07/18 06:54:20;;;;;;;9.10;4.47;;;;;;;;;;4983730;28;20102;-80
2021/07/18 06:56:47;;;;;;;8.40;4.43;;;;;;;;;;4979032;28;20047;-80
2021/07/18 06:59:13;;;;;;;8.18;4.68;;;;;;;;;;4978598;28;20050;-80
2021/07/18 07:01:40;;;;;;;11.38;4.43;;;;;;;;;;4965937;28;20110;-80
2021/07/18 07:04:07;;;;;;;8.80;3.92;;;;;;;;;;4959395;28;20555;-80
2021/07/18 07:06:36;;;;;;;8.00;4.05;;;;;;;;;;4958679;28;20126;-80
2021/07/18 07:09:02;;;;;;;6.28;3.92;;;;;;;;;;4959504;28;20106;-80
2021/07/18 07:11:29;;;;;;;9.05;4.68;;;;;;;;;;4959053;28;20043;-80
2021/07/18 07:13:56;;;;;;;8.35;4.00;;;;;;;;;;4958080;28;20110;-80
2021/07/18 07:16:23;;;;;;;8.68;4.10;;;;;;;;;;4958353;29;20105;-80
2021/07/18 07:18:49;;;;;;;7.43;4.10;;;;;;;;;;4958723;29;20051;-79
2021/07/18 07:21:16;;;;;;;7.22;4.32;;;;;;;;;;4958929;29;20071;-79
2021/07/18 07:23:44;;;;;;;7.32;4.28;;;;;;;;;;4959019;28;20118;-79
2021/07/18 07:26:11;;;;;;;7.47;4.28;;;;;;;;;;4958026;28;20051;-80
2021/07/18 07:28:38;;;;;;;7.43;4.75;;;;;;;;;;4958753;29;20047;-80
2021/07/18 07:31:05;;;;;;;7.35;3.97;;;;;;;;;;4958268;28;20047;-80
2021/07/18 07:33:33;;;;;;;8.90;4.47;;;;;;;;;;4958377;29;20052;-80
2021/07/18 07:36:01;;;;;;;8.02;4.30;;;;;;;;;;4958025;29;20049;-80
2021/07/18 07:38:28;;;;;;;7.80;3.80;;;;;;;;;;4957874;29;20090;-80
2021/07/18 07:40:56;;;;;;;7.65;4.32;;;;;;;;;;4958065;29;20044;-80
2021/07/18 07:43:23;;;;;;;6.95;3.90;;;;;;;;;;4957480;28;20106;-77
2021/07/18 07:45:51;;;;;;;7.68;4.25;;;;;;;;;;4956703;29;20051;-79
2021/07/18 07:48:18;;;;;;;10.70;4.68;;;;;;;;;;4958991;29;20063;-79
2021/07/18 07:50:45;;;;;;;7.55;4.78;;;;;;;;;;4958295;28;20047;-79
2021/07/18 07:53:11;;;;;;;8.77;4.15;;;;;;;;;;4958074;29;20050;-78
2021/07/18 07:55:38;;;;;;;8.07;5.35;;;;;;;;;;4957577;29;20051;-78
2021/07/18 07:58:07;;;;;;;11.32;6.65;;;;;;;;;;4957539;29;20051;-79
2021/07/18 08:00:35;;;;;;;7.55;4.95;;;;;;;;;;4954108;29;20078;-78
2021/07/18 08:03:02;;;;;;;9.57;4.60;;;;;;;;;;4937676;28;20055;-79
2021/07/18 08:05:29;;;;;;;8.07;5.30;;;;;;;;;;4936656;29;20459;-79
2021/07/18 08:07:56;;;;;;;9.38;5.78;;;;;;;;;;4937935;29;20044;-79
2021/07/18 08:10:24;;;;;;;12.00;7.05;;;;;;;;;;4943590;29;20047;-78
2021/07/18 08:12:52;;;;;;;10.63;5.53;;;;;;;;;;4954878;29;20535;-79
2021/07/18 08:15:23;;;;;;;18.38;6.30;;;;;;;;;;4959971;29;20645;-79
2021/07/18 08:17:51;;;;;;;9.25;5.45;;;;;;;;;;4961075;29;20055;-79
2021/07/18 08:20:20;;;;;;;10.75;6.63;;;;;;;;;;4961025;29;20063;-79
2021/07/18 08:22:50;;;;;;;10.03;6.10;;;;;;;;;;4960897;29;20055;-79
2021/07/18 08:25:19;;;;;;;10.73;6.05;;;;;;;;;;4959911;28;20098;-79
2021/07/18 08:27:46;;;;;;;9.20;5.85;;;;;;;;;;4960045;29;20051;-79
2021/07/18 08:30:14;;;;;;;9.07;5.72;;;;;;;;;;4958688;29;20102;-79
2021/07/18 08:32:42;;;;;;;11.02;7.05;;;;;;;;;;4958320;28;20152;-79
2021/07/18 08:35:10;;;;;;;8.18;5.50;;;;;;;;;;4958301;28;20047;-79
2021/07/18 08:37:38;;;;;;;9.68;5.55;;;;;;;;;;4960631;29;20051;-79
2021/07/18 08:40:07;;;;;;;12.55;6.13;;;;;;;;;;4965022;29;20061;-79
2021/07/18 08:42:35;;;;;;;9.13;5.40;;;;;;;;;;4968114;29;20130;-80
2021/07/18 08:45:03;;;;;;;9.50;5.82;;;;;;;;;;4963390;29;20277;-80
2021/07/18 08:47:30;;;;;;;9.93;5.93;;;;;;;;;;4961089;29;20047;-79
2021/07/18 08:49:58;;;;;;;9.73;6.07;;;;;;;;;;4959692;29;20106;-79
2021/07/18 08:52:26;;;;;;;9.35;6.03;;;;;;;;;;4959857;29;20055;-79
2021/07/18 08:54:54;;;;;;;10.05;6.15;;;;;;;;;;4960127;29;20504;-80
2021/07/18 08:57:23;;;;;;;10.30;6.13;;;;;;;;;;4961113;29;20051;-80
2021/07/18 08:59:51;;;;;;;10.27;6.30;;;;;;;;;;4956615;29;20504;-80
2021/07/18 09:02:18;;;;;;;11.30;6.75;;;;;;;;;;4957117;28;20051;-80
2021/07/18 09:04:45;;;;;;;11.00;6.25;;;;;;;;;;4956496;28;20079;-80
2021/07/18 09:07:18;;;;;;;12.23;6.60;;;;;;;;;;4957284;28;20047;-80
2021/07/18 09:09:48;;;;;;;12.02;7.60;;;;;;;;;;4960592;28;20311;-80
2021/07/18 09:12:16;;;;;;;;;;;;;;;;;;4961068;28;20058;-80
2021/07/18 09:14:46;;;;;;;11.50;6.93;;;;;;;;;;4956459;29;19928;-81
2021/07/18 09:17:15;;;;;;;11.60;7.28;;;;;;;;;;4956967;28;20138;-80
2021/07/18 09:19:48;;;;;;;10.60;7.47;;;;;;;;;;4956142;29;20121;-80
2021/07/18 09:22:21;;;;;;;12.40;7.03;;;;;;;;;;4957494;28;20055;-80
2021/07/18 09:24:51;;;;;;;10.27;7.15;;;;;;;;;;4958191;29;20417;-80
2021/07/18 09:27:21;;;;;;;13.73;9.00;;;;;;;;;;4958194;29;20046;-80
2021/07/18 09:29:50;;;;;;;12.30;8.23;;;;;;;;;;4959335;29;20058;-80
2021/07/18 09:32:19;;;;;;;11.45;8.07;;;;;;;;;;4959052;29;20054;-80
2021/07/18 09:34:47;;;;;;;12.07;8.18;;;;;;;;;;4959138;29;20051;-80
2021/07/18 09:37:21;;;;;;;10.93;8.23;;;;;;;;;;4959434;29;20055;-80
2021/07/18 09:39:53;;;;;;;11.45;7.75;;;;;;;;;;4959884;29;20051;-81
2021/07/18 09:42:32;;;;;;;12.52;8.38;;;;;;;;;;4956952;29;20110;-81
2021/07/18 09:44:59;;;;;;;13.55;7.78;;;;;;;;;;4956240;28;20110;-80
2021/07/18 09:47:27;;;;;;;13.20;8.55;;;;;;;;;;4955422;28;20055;-80
2021/07/18 09:49:54;;;;;;;11.50;8.98;;;;;;;;;;4955388;28;20624;-81
2021/07/18 09:52:26;;;;;;;12.35;9.20;;;;;;;;;;4958800;29;20102;-80
2021/07/18 09:54:54;;;;;;;12.38;9.30;;;;;;;;;;4956117;28;20047;-79
2021/07/18 09:57:35;;;;;;;12.60;9.07;;;;;;;;;;4958283;29;20047;-79
2021/07/18 10:00:07;;;;;;;11.32;9.43;;;;;;;;;;4957395;29;20104;-79
2021/07/18 10:02:34;;;;;;;15.27;10.88;;;;;;;;;;4939588;29;20075;-80
2021/07/18 10:05:01;;;;;;;12.75;8.35;;;;;;;;;;4938337;29;20048;-80
2021/07/18 10:07:34;;;;;;;12.98;9.20;;;;;;;;;;4939784;29;20627;-79
2021/07/18 10:10:02;;;;;;;18.33;13.05;;;;;;;;;;4942901;29;20458;-80
2021/07/18 10:12:30;;;;;;;13.98;10.02;;;;;;;;;;4954570;29;20059;-80
2021/07/18 10:14:59;;;;;;;16.00;11.10;;;;;;;;;;4961792;28;20051;-80
2021/07/18 10:17:28;;;;;;;13.15;10.07;;;;;;;;;;4962375;28;20055;-80
2021/07/18 10:19:55;;;;;;;14.65;11.35;;;;;;;;;;4960765;29;20098;-81
2021/07/18 10:22:24;;;;;;;16.95;11.55;;;;;;;;;;4963231;29;20055;-80
2021/07/18 10:24:54;;;;;;;15.90;11.25;;;;;;;;;;4967205;29;20059;-79
2021/07/18 10:27:22;;;;;;;18.20;12.05;;;;;;;;;;4959269;29;20051;-79
2021/07/18 10:29:52;;;;;;;17.60;12.63;;;;;;;;;;4973286;29;20074;-79
2021/07/18 10:32:21;;;;;;;17.42;12.20;;;;;;;;;;4972237;29;20078;-79
2021/07/18 10:34:52;;;;;;;17.75;12.93;;;;;;;;;;4973471;29;20106;-80
2021/07/18 10:37:19;;;;;;;20.58;13.93;;;;;;;;;;4972906;29;20055;-80
2021/07/18 10:39:46;;;;;;;24.77;13.90;;;;;;;;;;4960737;29;20048;-80
2021/07/18 10:42:31;;;;;;;20.75;14.50;;;;;;;;;;4959927;29;20078;-80
2021/07/18 10:44:58;;;;;;;18.35;12.82;;;;;;;;;;4959281;29;20079;-82
2021/07/18 10:47:44;;;;;;;24.23;17.63;;;;;;;;;;4959579;28;20505;-80
2021/07/18 10:50:12;;;;;;;21.90;15.05;;;;;;;;;;4962619;29;20062;-80
2021/07/18 10:52:39;;;;;;;23.08;16.83;;;;;;;;;;4962083;29;20110;-80
2021/07/18 10:55:22;;;;;;;24.38;15.98;;;;;;;;;;4958646;29;20424;-79
2021/07/18 10:57:52;;;;;;;23.88;17.30;;;;;;;;;;4959958;29;20102;-79
2021/07/18 11:00:22;;;;;;;23.00;18.35;;;;;;;;;;4958422;29;20086;-79
2021/07/18 11:03:03;;;;;;;21.85;14.00;;;;;;;;;;4959448;28;20110;-80
2021/07/18 11:05:40;;;;;;;26.63;18.45;;;;;;;;;;4961053;28;20126;-80
2021/07/18 11:08:07;;;;;;;20.70;16.02;;;;;;;;;;4963781;28;20567;-80
2021/07/18 11:10:48;;;;;;;19.00;14.18;;;;;;;;;;4960867;28;20497;-81
2021/07/18 11:13:16;;;;;;;19.10;14.63;;;;;;;;;;4959050;28;20103;-81
2021/07/18 11:15:44;;;;;;;20.15;15.13;;;;;;;;;;4958824;29;20051;-80
2021/07/18 11:18:13;;;;;;;21.35;16.20;;;;;;;;;;4958614;29;20485;-80
2021/07/18 11:20:58;;;;;;;21.30;16.02;;;;;;;;;;4960966;29;20051;-80
2021/07/18 11:23:34;;;;;;;20.75;15.32;;;;;;;;;;4961144;29;20050;-79
2021/07/18 11:26:13;;;;;;;20.05;15.02;;;;;;;;;;4960170;29;20051;-80
2021/07/18 11:28:50;;;;;;;20.23;14.10;;;;;;;;;;4961190;29;20053;-79
2021/07/18 11:31:28;;;;;;;18.02;13.43;;;;;;;;;;4973423;29;20047;-80
2021/07/18 11:34:05;;;;;;;17.83;14.90;;;;;;;;;;4972009;29;20055;-80
2021/07/18 11:37:02;;;;;;;19.60;14.57;;;;;;;;;;4968894;29;20055;-80
2021/07/18 11:39:30;;;;;;;17.75;13.75;;;;;;;;;;4966473;29;20043;-80
2021/07/18 11:41:58;;;;;;;19.58;15.23;;;;;;;;;;4962801;29;20074;-79
2021/07/18 11:44:32;;;;;;;23.05;15.50;;;;;;;;;;4959123;29;20078;-79
2021/07/18 11:47:02;;;;;;;18.92;15.10;;;;;;;;;;4959586;29;20148;-79
2021/07/18 11:49:32;;;;;;;21.77;15.80;;;;;;;;;;4959679;28;20150;-79
2021/07/18 11:51:58;;;;;;;21.95;15.00;;;;;;;;;;4961227;28;20285;-80
2021/07/18 11:54:25;;;;;;;18.83;13.90;;;;;;;;;;4965445;29;20477;-80
2021/07/18 11:56:52;;;;;;;20.65;16.00;;;;;;;;;;4962501;29;20047;-80
2021/07/18 11:59:20;;;;;;;19.20;14.73;;;;;;;;;;4961638;28;20467;-80
2021/07/18 12:01:50;;;;;;;19.67;14.55;;;;;;;;;;4961609;29;20098;-79
2021/07/18 12:04:22;;;;;;;21.95;14.82;;;;;;;;;;4952912;28;20159;-80
2021/07/18 12:06:51;;;;;;;23.08;16.45;;;;;;;;;;4957988;29;20078;-80
2021/07/18 12:09:22;;;;;;;21.73;16.38;;;;;;;;;;4957802;29;20075;-81
2021/07/18 12:11:50;;;;;;;21.83;14.68;;;;;;;;;;4959672;29;20035;-81
2021/07/18 12:14:17;;;;;;;19.95;14.63;;;;;;;;;;4959022;29;20055;-81
2021/07/18 12:16:45;;;;;;;20.63;15.02;;;;;;;;;;4958469;29;20111;-81
2021/07/18 12:19:15;;;;;;;18.27;14.52;;;;;;;;;;4958899;29;20051;-79
2021/07/18 12:21:43;;;;;;;23.48;15.82;;;;;;;;;;4959354;29;20051;-81
2021/07/18 12:24:22;;;;;;;19.17;14.90;;;;;;;;;;4961909;29;20129;-80
2021/07/18 12:27:00;;;;;;;19.83;14.55;;;;;;;;;;4959637;29;20110;-80
2021/07/18 12:29:29;;;;;;;17.95;12.80;;;;;;;;;;4960893;29;20043;-80
2021/07/18 12:31:56;;;;;;;19.30;14.48;;;;;;;;;;4962576;29;20591;-80
2021/07/18 12:34:29;;;;;;;18.58;14.50;;;;;;;;;;4978704;28;20043;-79
2021/07/18 12:36:59;;;;;;;20.30;15.35;;;;;;;;;;4965875;29;20121;-80
2021/07/18 12:39:28;;;;;;;23.25;17.08;;;;;;;;;;4962858;28;20109;-79
2021/07/18 12:41:58;;;;;;;17.15;14.20;;;;;;;;;;4961185;29;20075;-80
2021/07/18 12:44:28;;;;;;;19.08;14.10;;;;;;;;;;4956410;29;20119;-79
2021/07/18 12:47:27;;;;;;;18.55;14.02;;;;;;;;;;4956318;29;20055;-80
2021/07/18 12:50:26;;;;;;;18.25;13.70;;;;;;;;;;4973380;23;20055;-77
2021/07/18 12:53:11;;;;;;;18.27;14.80;;;;;;;;;;4953765;29;20047;-78
2021/07/18 12:55:41;;;;;;;20.58;14.23;;;;;;;;;;4953562;29;20047;-77
2021/07/18 12:58:19;;;;;;;17.65;13.90;;;;;;;;;;4953567;29;20100;-76
2021/07/18 13:00:47;;;;;;;16.40;12.93;;;;;;;;;;4936931;29;20103;-76
2021/07/18 13:03:16;;;;;;;17.45;13.40;;;;;;;;;;4933890;29;20056;-76
2021/07/18 13:05:46;;;;;;;16.70;13.88;;;;;;;;;;4933328;29;20052;-77
2021/07/18 13:08:28;;;;;;;16.88;14.57;;;;;;;;;;4933722;29;20059;-77
2021/07/18 13:10:56;;;;;;;19.38;15.10;;;;;;;;;;4932802;29;20466;-75
2021/07/18 13:13:30;;;;;;;18.48;14.23;;;;;;;;;;4933810;29;20163;-77
2021/07/18 13:16:01;;;;;;;19.15;15.13;;;;;;;;;;4933699;29;20047;-77
2021/07/18 13:18:33;;;;;;;17.95;13.75;;;;;;;;;;4937696;29;20075;-76
2021/07/18 13:21:14;;;;;;;16.77;13.23;;;;;;;;;;4933898;29;20055;-77
2021/07/18 13:23:43;;;;;;;16.00;14.00;;;;;;;;;;4934894;29;20052;-77
2021/07/18 13:26:30;;;;;;;15.82;13.85;;;;;;;;;;4933653;29;20056;-75
2021/07/18 13:29:14;;;;;;;16.83;13.23;;;;;;;;;;4933727;29;20058;-77
2021/07/18 13:31:41;;;;;;;16.00;13.43;;;;;;;;;;4933530;29;20110;-76
2021/07/18 13:34:08;;;;;;;14.55;12.93;;;;;;;;;;4933669;29;20051;-76
2021/07/18 13:36:36;;;;;;;14.40;12.80;;;;;;;;;;4932949;29;20051;-76
2021/07/18 13:39:10;;;;;;;15.30;12.45;;;;;;;;;;4933414;29;20051;-78
2021/07/18 13:41:40;;;;;;;14.48;11.85;;;;;;;;;;4933097;29;20044;-77
2021/07/18 13:44:07;;;;;;;16.17;12.88;;;;;;;;;;4933133;29;20552;-76
2021/07/18 13:46:34;;;;;;;16.23;12.38;;;;;;;;;;4933213;29;20687;-78
2021/07/18 13:49:01;;;;;;;13.90;11.82;;;;;;;;;;4933182;29;20078;-76
2021/07/18 13:51:29;;;;;;;14.05;12.55;;;;;;;;;;4933734;29;20044;-75
2021/07/18 13:53:59;;;;;;;13.38;11.52;;;;;;;;;;4933987;29;20077;-76
2021/07/18 13:56:26;;;;;;;13.30;11.93;;;;;;;;;;4933398;29;20048;-77
2021/07/18 13:58:53;;;;;;;14.38;11.60;;;;;;;;;;4932747;29;20536;-78
2021/07/18 14:01:21;;;;;;;12.57;10.15;;;;;;;;;;4933077;29;20506;-76
2021/07/18 14:03:48;;;;;;;11.95;10.40;;;;;;;;;;4933353;29;20055;-78
2021/07/18 14:06:14;;;;;;;13.82;10.70;;;;;;;;;;4932615;29;20051;-76
2021/07/18 14:08:41;;;;;;;11.93;10.25;;;;;;;;;;4932937;29;20102;-77
2021/07/18 14:11:09;;;;;;;13.73;10.38;;;;;;;;;;4932612;29;20556;-77
2021/07/18 14:13:36;;;;;;;11.15;9.98;;;;;;;;;;4933020;29;20108;-76
2021/07/18 14:16:03;;;;;;;11.38;10.18;;;;;;;;;;4932499;29;20110;-77
2021/07/18 14:18:30;;;;;;;14.88;10.27;;;;;;;;;;4932707;29;20596;-76
2021/07/18 14:20:58;;;;;;;12.18;10.45;;;;;;;;;;4932359;29;20055;-76
2021/07/18 14:23:25;;;;;;;11.05;9.85;;;;;;;;;;4935826;29;20103;-76
2021/07/18 14:25:52;;;;;;;11.27;9.60;;;;;;;;;;4936602;29;20111;-77
2021/07/18 14:28:20;;;;;;;10.90;9.75;;;;;;;;;;4936728;29;20044;-77
2021/07/18 14:30:47;;;;;;;12.98;11.68;;;;;;;;;;4936824;29;20055;-78
2021/07/18 14:33:15;;;;;;;10.93;9.65;;;;;;;;;;4936474;29;20122;-76
2021/07/18 14:35:42;;;;;;;11.82;10.50;;;;;;;;;;4935952;29;20070;-76
2021/07/18 14:38:09;;;;;;;10.20;9.20;;;;;;;;;;4936134;29;20047;-76